Latest Weather Observations for Mount Buller

IDV60801

Issued at 12:22 pm EST Sunday 5 April 2020 (issued every 10 minutes, with the page automatically refreshed every 10 minutes)

About weather observations | Map of weather stations | Latest weather observations for VIC | Other Formats
Station Details ID: 083024 Name: MOUNT BULLER Lat: -37.15 Lon: 146.44 Height: 1707.0 m
Data from the previous 72 hours. | See also: Recent months at Mount Buller
Date/Time
EST
Temp
°C
App
Temp
°C
Dew
Point
°C
Rel
Hum
%
Delta-T
°C
Wind Press
QNH
hPa
Press
MSL
hPa
Rain since
9am
mm
Dir  Spd
km/h
Gust
km/h
Spd
kts
Gust
kts
05/12:06pm 1.6 -6.2 1.5 99 0.0 N 32 70 17 38 - - 5.2
05/12:05pm 1.6 -5.5 1.5 99 0.0 N 28 48 15 26 - - 5.2
05/12:00pm 1.4 -4.6 1.3 99 0.0 NNW 22 39 12 21 - - 5.0
05/11:30am 0.8 -4.7 0.7 99 0.0 N 19 28 10 15 - - 3.4
05/11:00am 0.5 -4.3 0.4 99 0.0 N 15 24 8 13 - - 2.8
05/10:30am -0.1 -5.0 -0.2 99 0.0 N 15 22 8 12 - - 2.4
05/10:00am -0.1 -5.7 -0.2 99 0.0 NNW 19 26 10 14 - - 1.8
05/09:30am -0.1 -5.3 -0.2 99 0.0 NNW 17 24 9 13 - - 0.6
05/09:00am -0.2 -6.0 -0.3 99 0.0 NNW 20 26 11 14 - - -
05/08:30am -0.7 -7.0 -0.8 99 0.0 NNW 22 30 12 16 - - -
05/08:00am -1.0 -8.5 -1.1 99 0.0 NNW 28 35 15 19 - - -
05/07:30am -1.3 -9.2 -1.4 99 0.0 N 30 37 16 20 - - -
05/07:00am -1.5 -9.4 -1.6 99 0.0 NNW 30 37 16 20 - - -
05/06:30am -2.0 -9.6 -2.1 99 -0.1 NNW 28 37 15 20 - - -
05/06:00am -2.2 -10.2 -2.3 99 -0.1 N 30 39 16 21 - - -
05/05:30am -2.2 -9.8 -2.3 99 -0.1 NNW 28 39 15 21 - - -
05/05:00am -2.2 -9.1 -2.3 99 -0.1 N 24 33 13 18 - - -
05/04:30am -2.2 -9.1 -2.3 99 -0.1 NNW 24 35 13 19 - - -
05/04:00am -2.3 -7.8 -2.4 99 -0.1 N 17 26 9 14 - - -
05/03:30am -2.5 -7.7 -2.6 99 -0.1 NNW 15 28 8 15 - - -
05/03:00am -2.3 - -2.4 99 -0.1 - - - - - - - -
05/03:30am -2.1 -8.6 -2.2 99 -0.1 N 22 33 12 18 - - 29.4
05/03:00am -2.6 -7.8 -2.7 99 -0.1 NNW 15 30 8 16 - - 29.2
05/02:30am -2.5 -6.5 -2.6 99 -0.1 NW 9 28 5 15 - - 29.2
05/02:00am -2.3 -6.7 -2.4 99 -0.1 NW 11 26 6 14 - - 29.2
05/01:30am -2.1 -7.6 -2.2 99 -0.1 NNW 17 32 9 17 - - 29.2
05/01:00am -2.4 -7.2 -2.5 99 -0.1 NW 13 33 7 18 - - 29.2
05/12:30am -2.3 -7.8 -2.4 99 -0.1 WNW 17 33 9 18 - - 29.2
05/12:00am -2.3 -8.4 -2.4 99 -0.1 WNW 20 33 11 18 - - 29.2
 
Date/Time
EST
Temp
°C
App
Temp
°C
Dew
Point
°C
Rel
Hum
%
Delta-T
°C
Wind Press
QNH
hPa
Press
MSL
hPa
Rain since
9am
mm
Dir  Spd
km/h
Gust
km/h
Spd
kts
Gust
kts
04/11:30pm -2.4 -8.0 -2.5 99 -0.1 WNW 17 32 9 17 - - 29.2
04/11:00pm -2.6 -9.9 -2.7 99 -0.1 WNW 26 41 14 22 - - 29.2
04/10:30pm -2.5 -9.8 -2.6 99 -0.1 W 26 39 14 21 - - 29.0
04/10:00pm -2.9 -9.5 -3.0 99 -0.1 WNW 22 39 12 21 - - 28.8
04/09:30pm -2.7 -9.2 -2.8 99 -0.1 WNW 22 39 12 21 - - 28.6
04/09:00pm -2.7 -11.7 -2.8 99 -0.1 W 35 59 19 32 - - 28.2
04/08:48pm -2.0 -10.0 -2.1 99 -0.1 W 30 52 16 28 - - 27.8
04/08:30pm -1.3 -9.6 -1.4 99 0.0 W 32 48 17 26 - - 27.4
04/08:00pm -0.5 -7.1 -0.6 99 0.0 WNW 24 41 13 22 - - 26.6
04/07:55pm -0.5 -7.9 -0.6 99 0.0 WNW 28 46 15 25 - - 26.6
04/07:30pm -0.6 -7.6 -0.7 99 0.0 WNW 26 57 14 31 - - 26.6
04/07:00pm -0.5 -7.9 -0.6 99 0.0 WNW 28 48 15 26 - - 26.6
04/06:30pm -0.5 -8.3 -0.6 99 0.0 WNW 30 50 16 27 - - 26.2
04/06:00pm -0.2 -8.9 -0.3 99 0.0 WNW 35 70 19 38 - - 25.6
04/05:58pm -0.2 -8.9 -0.3 99 0.0 WNW 35 70 19 38 - - 25.6
04/05:30pm -0.4 -8.5 -0.5 99 0.0 W 32 50 17 27 - - 23.4
04/05:18pm 0.4 -5.1 0.3 99 0.0 NNW 19 67 10 36 - - 23.4
04/05:00pm 0.4 -5.1 0.3 99 0.0 NNW 19 37 10 20 - - 22.0
04/04:42pm 0.3 -5.5 0.2 99 0.0 NNW 20 50 11 27 - - 22.0
04/04:30pm 0.5 -5.2 0.4 99 0.0 NNW 20 43 11 23 - - 22.0
04/04:00pm 1.4 -2.9 1.3 99 0.0 NW 13 32 7 17 - - 22.0
04/03:30pm 1.1 -7.0 1.0 99 0.0 WNW 33 69 18 37 - - 22.0
04/03:00pm 1.5 -6.9 1.4 99 0.0 WNW 35 69 19 37 - - 19.8
04/02:30pm 1.2 -6.9 1.1 99 0.0 WNW 33 65 18 35 - - 19.4
04/02:21pm 1.0 -6.5 0.9 99 0.0 WNW 30 65 16 35 - - 19.4
04/02:01pm 0.6 -6.6 0.5 99 0.0 WNW 28 46 15 25 - - 17.6
04/02:00pm 0.7 -6.1 0.6 99 0.0 WNW 26 46 14 25 - - 17.4
04/01:35pm 0.9 -4.6 0.8 99 0.0 NW 19 56 10 30 - - 14.8
04/01:30pm 2.5 -2.0 2.4 99 0.0 NNW 15 37 8 20 - - 14.0
04/01:00pm 2.3 -1.8 2.2 99 0.0 NNW 13 37 7 20 - - 13.8
04/12:41pm 2.1 -4.9 2.0 99 0.0 WNW 28 50 15 27 - - 13.8
04/12:30pm 2.3 -4.3 2.2 99 0.0 WNW 26 46 14 25 - - 13.8
04/12:17pm 2.1 -4.9 2.0 99 0.0 WNW 28 57 15 31 - - 13.6
04/12:00pm 2.4 -3.0 2.3 99 0.0 WNW 20 44 11 24 - - 11.6
04/11:30am 2.2 -5.5 2.1 99 0.0 WNW 32 50 17 27 - - 11.4
04/11:00am 2.2 -4.8 2.1 99 0.0 WNW 28 54 15 29 - - 11.2
04/10:30am 2.0 -5.4 1.9 99 0.0 WNW 30 50 16 27 - - 10.6
04/10:00am 1.8 -6.6 1.7 99 0.0 WNW 35 59 19 32 - - 8.4
04/09:46am 2.2 -4.8 2.1 99 0.0 WNW 28 54 15 29 - - 6.2
04/09:30am 3.0 -1.7 2.9 99 0.0 WNW 17 39 9 21 - - 2.2
04/09:00am 3.2 -0.8 3.1 99 0.0 WNW 13 30 7 16 - - 18.8
04/08:30am 3.1 -2.2 3.0 99 0.0 W 20 37 11 20 - - 15.4
04/08:14am 3.3 -3.5 3.2 99 0.0 WNW 28 50 15 27 - - 15.0
04/08:00am 3.9 -0.3 3.8 99 0.0 WNW 15 35 8 19 - - 14.6
04/07:30am 3.7 -0.5 3.6 99 0.0 WNW 15 32 8 17 - - 12.6
04/07:00am 4.0 -0.9 3.9 99 0.0 WNW 19 30 10 16 - - 12.6
04/06:30am 3.5 -1.7 3.4 99 0.0 W 20 30 11 16 - - 12.6
04/06:00am 3.7 -2.3 3.6 99 0.0 W 24 35 13 19 - - 12.6
04/05:49am 3.8 -3.3 3.7 99 0.0 WNW 30 46 16 25 - - 12.4
04/05:30am 3.8 -2.5 3.7 99 0.0 WSW 26 39 14 21 - - 11.4
04/05:00am 3.9 -3.5 3.8 99 0.0 W 32 50 17 27 - - 10.0
04/04:30am 5.3 -1.8 5.3 100 0.0 W 32 59 17 32 - - 7.6
04/04:23am 6.1 -1.4 6.1 100 0.0 NNW 35 63 19 34 - - 6.4
04/04:20am 6.7 -1.9 6.7 100 0.0 N 41 63 22 34 - - 5.6
04/04:00am 7.2 -4.3 7.2 100 0.0 N 57 76 31 41 - - 2.2
04/03:30am 7.2 -4.3 7.2 100 0.0 N 57 78 31 42 - - 1.4
04/03:00am 7.0 -3.2 7.0 100 0.0 NNE 50 82 27 44 - - 1.0
04/02:30am 6.9 -2.6 6.9 100 0.0 NNE 46 67 25 36 - - 0.2
04/02:00am 6.9 -2.9 6.9 100 0.0 NNE 48 69 26 37 - - 0.0
04/01:30am 6.5 -4.6 6.5 100 0.0 NNE 54 80 29 43 - - 0.0
04/01:00am 6.1 -3.9 6.1 100 0.0 NNE 48 69 26 37 - - 0.0
04/12:32am 5.7 -3.4 5.7 100 0.0 NNE 43 61 23 33 - - 0.0
04/12:30am 5.8 -2.9 5.8 100 0.0 NNE 41 56 22 30 - - 0.0
04/12:08am 6.0 -3.1 6.0 100 0.0 NNE 43 61 23 33 - - 0.0
04/12:00am 5.8 -3.5 5.8 100 0.0 NNE 44 61 24 33 - - 0.0
 
Date/Time
EST
Temp
°C
App
Temp
°C
Dew
Point
°C
Rel
Hum
%
Delta-T
°C
Wind Press
QNH
hPa
Press
MSL
hPa
Rain since
9am
mm
Dir  Spd
km/h
Gust
km/h
Spd
kts
Gust
kts
03/11:32pm 6.1 -1.1 6.1 100 0.0 NNE 33 56 18 30 - - 0.0
03/11:30pm 6.2 -1.3 6.2 100 0.0 NNE 35 52 19 28 - - 0.0
03/11:16pm 6.2 -2.1 6.2 100 0.0 NNE 39 59 21 32 - - 0.0
03/11:00pm 6.2 -0.4 6.2 100 0.0 NNE 30 46 16 25 - - 0.0
03/10:30pm 6.3 0.9 6.3 100 0.0 NNE 24 37 13 20 - - 0.0
03/10:00pm 6.5 0.4 6.5 100 0.0 N 28 43 15 23 - - 0.0
03/09:37pm 6.7 0.2 6.7 100 0.0 NNE 30 48 16 26 - - 0.0
03/09:30pm 6.8 -0.6 6.8 100 0.0 NNE 35 52 19 28 - - 0.0
03/09:10pm 6.7 0.2 6.7 100 0.0 NNE 30 48 16 26 - - 0.0
03/09:00pm 6.5 0.4 6.5 100 0.0 N 28 39 15 21 - - 0.0
03/08:30pm 6.4 0.6 6.4 100 0.0 N 26 35 14 19 - - 0.0
03/08:00pm 6.4 0.6 6.4 100 0.0 N 26 39 14 21 - - 0.0
03/07:30pm 6.3 0.5 6.2 99 0.0 N 26 37 14 20 - - 0.0
03/07:00pm 5.9 1.1 5.8 99 0.0 N 20 30 11 16 - - 0.0
03/06:30pm 6.1 0.2 6.0 99 0.0 NNE 26 37 14 20 - - 0.0
03/06:00pm 6.3 -0.7 6.2 99 0.0 NNE 32 43 17 23 - - 0.0
03/05:30pm 7.1 1.8 7.0 99 0.1 NNE 24 33 13 18 - - 0.0
03/05:00pm 7.0 3.1 7.0 100 0.0 NNE 17 26 9 14 - - 0.0
03/04:30pm 7.4 3.9 7.4 100 0.0 NE 15 22 8 12 - - 0.0
03/04:00pm 6.9 2.9 6.8 99 0.1 NNE 17 24 9 13 - - 0.0
03/03:30pm 6.9 2.6 6.8 99 0.1 NNE 19 26 10 14 - - 0.0
03/03:00pm 7.3 2.9 7.2 99 0.1 NNE 20 24 11 13 - - 0.0
03/02:30pm 7.7 3.9 7.7 100 0.0 N 17 22 9 12 - - 0.0
03/02:00pm 7.4 3.2 7.4 100 0.0 N 19 24 10 13 - - 0.0
03/01:30pm 6.6 2.2 6.6 100 0.0 NNE 19 24 10 13 - - 0.0
03/01:00pm 6.7 2.3 6.7 100 0.0 N 19 22 10 12 - - 0.0
03/12:30pm 7.0 3.1 7.0 100 0.0 N 17 24 9 13 - - 0.0
03/12:00pm 7.4 3.2 7.4 100 0.0 N 19 24 10 13 - - 0.0
03/11:30am 6.7 2.7 6.7 100 0.0 N 17 30 9 16 - - 0.0
03/11:00am 6.5 1.5 6.5 100 0.0 N 22 30 12 16 - - 0.0
03/10:30am 6.5 1.1 6.5 100 0.0 N 24 32 13 17 - - 0.0
03/10:00am 6.6 1.6 6.6 100 0.0 N 22 28 12 15 - - 0.0
03/09:30am 6.2 0.8 6.2 100 0.0 N 24 28 13 15 - - 0.0
03/09:00am 6.2 0.8 6.2 100 0.0 N 24 30 13 16 - - 34.0
03/08:30am 6.1 0.3 6.1 100 0.0 N 26 33 14 18 - - -
03/08:00am 6.1 -0.1 6.1 100 0.0 NNW 28 37 15 20 - - -
03/07:30am 6.2 0.4 6.2 100 0.0 NNW 26 33 14 18 - - -
03/07:00am 6.3 1.8 6.3 100 0.0 NNW 19 32 10 17 - - -
03/06:30am 6.5 0.4 6.5 100 0.0 NNW 28 46 15 25 - - -
03/06:00am 6.6 0.5 6.6 100 0.0 NNW 28 39 15 21 - - -
03/05:30am 6.8 0.7 6.8 100 0.0 NNW 28 35 15 19 - - -
03/05:00am 6.9 0.5 6.9 100 0.0 N 30 39 16 21 - - -
03/04:30am 6.7 0.2 6.7 100 0.0 NNW 30 39 16 21 - - -
03/04:00am 6.9 1.6 6.9 100 0.0 N 24 33 13 18 - - -
03/03:30am 6.8 0.7 6.8 100 0.0 NNW 28 41 15 22 - - -
03/03:00am 6.9 1.2 6.9 100 0.0 N 26 39 14 21 - - 14.0
03/02:30am 6.9 1.2 6.9 100 0.0 NNW 26 33 14 18 - - -
03/02:00am 6.9 0.9 6.9 100 0.0 NNW 28 39 15 21 - - -
03/01:30am 6.7 1.4 6.7 100 0.0 NNW 24 33 13 18 - - -
03/01:00am 6.7 0.2 6.7 100 0.0 N 30 41 16 22 - - -
03/12:30am 6.7 -0.1 6.7 100 0.0 NNW 32 41 17 22 - - -
03/12:00am 6.7 0.6 6.7 100 0.0 NNW 28 41 15 22 - - -
 
Date/Time
EST
Temp
°C
App
Temp
°C
Dew
Point
°C
Rel
Hum
%
Delta-T
°C
Wind Press
QNH
hPa
Press
MSL
hPa
Rain since
9am
mm
Dir  Spd
km/h
Gust
km/h
Spd
kts
Gust
kts
02/11:30pm 6.7 0.2 6.7 100 0.0 NNW 30 41 16 22 - - -
02/11:00pm 6.7 0.2 6.7 100 0.0 NNW 30 44 16 24 - - -
02/10:30pm 6.7 -0.1 6.7 100 0.0 NNW 32 46 17 25 - - -
02/10:00pm 6.7 0.2 6.6 99 0.1 NNW 30 43 16 23 - - -
02/09:30pm 6.7 -0.7 6.6 99 0.1 NNW 35 46 19 25 - - -
02/09:00pm 6.6 0.5 6.5 99 0.1 NNW 28 43 15 23 - - 1.0
02/08:30pm 6.5 0.4 6.4 99 0.1 N 28 39 15 21 - - -
02/08:00pm 6.4 1.0 6.3 99 0.1 N 24 33 13 18 - - -
02/07:30pm 6.3 0.1 6.2 99 0.0 NNW 28 41 15 22 - - -
02/07:00pm 6.4 0.2 6.3 99 0.1 NNW 28 37 15 20 - - -
02/06:30pm 6.3 -1.2 6.2 99 0.0 N 35 65 19 35 - - -
02/06:27pm 6.3 -0.8 6.2 99 0.0 N 33 65 18 35 - - -
02/06:00pm 6.3 -0.7 6.2 99 0.0 N 32 44 17 24 - - -
02/05:30pm 6.3 -2.0 6.2 99 0.0 NNW 39 56 21 30 - - -
02/05:01pm 6.7 -2.3 6.6 99 0.1 NNW 43 61 23 33 - - -
02/05:00pm 6.6 -2.6 6.5 99 0.1 NNW 44 61 24 33 - - -
02/04:31pm 7.0 -1.1 6.9 99 0.1 NNW 39 65 21 35 - - -
02/04:30pm 6.9 -1.2 6.8 99 0.1 NNW 39 54 21 29 - - -
02/04:00pm 7.6 -0.8 7.5 99 0.1 N 41 59 22 32 - - -
02/03:30pm 8.1 -1.1 8.0 99 0.1 N 46 65 25 35 - - -
02/03:08pm 8.2 -0.6 8.2 100 0.0 N 44 63 24 34 - - -
02/03:00pm 8.5 -0.6 8.5 100 0.0 N 46 59 25 32 - - -
02/02:30pm 8.5 -1.0 8.5 100 0.0 N 48 69 26 37 - - -
02/02:00pm 8.7 0.1 8.7 100 0.0 N 44 63 24 34 - - -
02/01:30pm 8.6 -0.5 8.6 100 0.0 N 46 65 25 35 - - -

Other formats

Comma delimited format used in spreadsheet applications
http://www.bom.gov.au/fwo/IDV60801/IDV60801.94894.axf

JavaScript Object Notation format (JSON) in row-major order
http://www.bom.gov.au/fwo/IDV60801/IDV60801.94894.json

Data quality

Most of these data are generated automatically and are frequently updated. Quality checks on data are not normally performed. It is possible for incorrect values to appear. Refer to information at About Latest Weather Observations and please check the disclaimer before using these data.